createdAt,value
2023-01-15T00:01:44.116Z,0.77
2023-01-15T00:04:26.975Z,0.98
2023-01-15T00:07:09.776Z,2.45
2023-01-15T00:09:54.191Z,2.20
2023-01-15T00:12:36.976Z,1.60
2023-01-15T00:15:19.927Z,1.30
2023-01-15T00:18:02.849Z,1.27
2023-01-15T00:20:45.634Z,1.38
2023-01-15T00:23:45.807Z,1.00
2023-01-15T00:26:49.849Z,1.00
2023-01-15T00:29:33.556Z,0.90
2023-01-15T00:32:16.459Z,1.00
2023-01-15T00:34:59.887Z,1.05
2023-01-15T00:37:43.724Z,1.10
2023-01-15T00:40:26.803Z,1.48
2023-01-15T00:43:10.957Z,1.13
2023-01-15T00:45:53.727Z,1.02
2023-01-15T00:48:36.874Z,0.90
2023-01-15T00:51:19.742Z,1.00
2023-01-15T00:54:02.752Z,0.82
2023-01-15T00:56:45.786Z,0.80
2023-01-15T00:59:30.095Z,0.60
2023-01-15T01:02:12.988Z,0.80
2023-01-15T01:04:55.802Z,0.63
2023-01-15T01:07:38.725Z,0.88
2023-01-15T01:10:21.579Z,0.70
2023-01-15T01:13:04.401Z,0.75
2023-01-15T01:15:48.536Z,1.10
2023-01-15T01:18:31.947Z,1.00
2023-01-15T01:21:14.804Z,1.10
2023-01-15T01:24:00.106Z,0.95
2023-01-15T01:26:45.350Z,1.17
2023-01-15T01:29:28.257Z,1.50
2023-01-15T01:32:13.494Z,1.08
2023-01-15T01:34:56.275Z,0.80
2023-01-15T01:37:39.796Z,0.70
2023-01-15T01:40:22.648Z,0.50
2023-01-15T01:43:07.445Z,0.63
2023-01-15T01:45:50.492Z,0.60
2023-01-15T01:48:35.371Z,0.80
2023-01-15T01:51:19.846Z,0.60
2023-01-15T01:54:04.431Z,0.60
2023-01-15T01:56:50.785Z,0.65
2023-01-15T01:59:34.202Z,0.52
2023-01-15T02:02:19.862Z,0.50
2023-01-15T02:05:05.501Z,0.40
2023-01-15T02:07:48.312Z,0.60
2023-01-15T02:10:31.324Z,0.60
2023-01-15T02:13:22.098Z,0.60
2023-01-15T02:16:16.640Z,0.50
2023-01-15T02:19:05.691Z,0.50
2023-01-15T02:21:58.121Z,0.60
2023-01-15T02:24:58.437Z,0.70
2023-01-15T02:27:48.536Z,0.50
2023-01-15T02:30:35.498Z,0.38
2023-01-15T02:33:24.872Z,0.52
2023-01-15T02:36:12.599Z,0.45
2023-01-15T02:39:04.072Z,0.47
2023-01-15T02:41:52.249Z,0.40
2023-01-15T02:44:41.450Z,0.32
2023-01-15T02:47:33.950Z,0.40
2023-01-15T02:50:22.157Z,0.30
2023-01-15T02:53:09.919Z,0.38
2023-01-15T02:55:58.368Z,0.50
2023-01-15T02:58:46.263Z,0.40
2023-01-15T03:01:35.435Z,0.40
2023-01-15T03:04:23.480Z,0.40
2023-01-15T03:07:11.709Z,0.55
2023-01-15T03:09:57.255Z,0.40
2023-01-15T03:13:00.457Z,0.50
2023-01-15T03:16:09.893Z,0.73
2023-01-15T03:18:59.207Z,0.50
2023-01-15T03:21:48.841Z,0.50
2023-01-15T03:24:36.776Z,0.38
2023-01-15T03:27:21.123Z,0.45
2023-01-15T03:30:14.497Z,0.45
2023-01-15T03:32:58.010Z,0.70
2023-01-15T03:35:47.255Z,0.43
2023-01-15T03:38:41.197Z,0.45
2023-01-15T03:41:41.963Z,0.40
2023-01-15T03:44:33.213Z,0.60
2023-01-15T03:47:30.627Z,0.45
2023-01-15T03:53:11.648Z,0.60
2023-01-15T03:56:08.025Z,0.60
2023-01-15T03:59:01.755Z,0.52
2023-01-15T04:02:01.633Z,0.50
2023-01-15T04:04:45.183Z,0.30
2023-01-15T04:07:29.030Z,0.50
2023-01-15T04:10:14.103Z,0.50
2023-01-15T04:12:57.383Z,0.57
2023-01-15T04:15:40.831Z,0.60
2023-01-15T04:18:24.067Z,0.50
2023-01-15T04:21:07.174Z,0.60
2023-01-15T04:23:51.559Z,0.50
2023-01-15T04:26:35.750Z,0.50
2023-01-15T04:29:18.540Z,0.60
2023-01-15T04:32:01.403Z,0.50
2023-01-15T04:34:44.135Z,0.60
2023-01-15T04:37:26.936Z,0.40
2023-01-15T04:40:30.894Z,0.40
2023-01-15T04:43:33.331Z,0.50
2023-01-15T04:46:16.392Z,0.40
2023-01-15T04:48:59.404Z,0.40
2023-01-15T04:51:42.790Z,0.45
2023-01-15T04:54:25.597Z,0.30
2023-01-15T04:57:08.527Z,0.40
2023-01-15T04:59:52.762Z,0.40
2023-01-15T05:02:35.705Z,0.50
2023-01-15T05:05:18.856Z,0.40
2023-01-15T05:08:01.644Z,0.40
2023-01-15T05:10:44.676Z,0.57
2023-01-15T05:13:27.442Z,0.60
2023-01-15T05:16:14.601Z,0.50
2023-01-15T05:18:59.919Z,0.60
2023-01-15T05:21:44.401Z,0.50
2023-01-15T05:24:27.147Z,0.45
2023-01-15T05:27:09.990Z,0.40
2023-01-15T05:29:52.750Z,0.40
2023-01-15T05:32:36.919Z,0.50
2023-01-15T05:35:19.905Z,0.47
2023-01-15T05:38:04.012Z,0.73
2023-01-15T05:40:46.767Z,0.60
2023-01-15T05:43:30.133Z,0.40
2023-01-15T05:46:12.919Z,0.30
2023-01-15T05:49:01.026Z,0.35
2023-01-15T05:51:44.169Z,1.00
2023-01-15T05:54:28.935Z,0.80
2023-01-15T05:57:13.665Z,0.70
2023-01-15T05:59:56.580Z,0.50
2023-01-15T06:02:39.467Z,0.70
2023-01-15T06:05:23.636Z,0.40
2023-01-15T06:08:06.740Z,0.60
2023-01-15T06:10:50.037Z,0.40
2023-01-15T06:13:32.838Z,0.70
2023-01-15T06:16:15.808Z,0.50
2023-01-15T06:19:01.936Z,0.80
2023-01-15T06:21:46.093Z,0.80
2023-01-15T06:24:28.872Z,0.32
2023-01-15T06:27:11.665Z,0.30
2023-01-15T06:29:54.458Z,0.50
2023-01-15T06:32:37.260Z,0.63
2023-01-15T06:35:20.148Z,1.25
2023-01-15T06:38:04.335Z,2.20
2023-01-15T06:40:47.168Z,1.23
2023-01-15T06:43:47.667Z,0.98
2023-01-15T06:46:48.249Z,0.70
2023-01-15T06:49:31.206Z,0.70
2023-01-15T06:52:14.218Z,0.70
2023-01-15T06:54:58.415Z,0.70
2023-01-15T06:57:42.183Z,0.52
2023-01-15T07:00:25.049Z,0.50
2023-01-15T07:03:07.981Z,0.70
2023-01-15T07:05:50.755Z,0.75
2023-01-15T07:08:33.551Z,1.00
2023-01-15T07:11:18.216Z,0.70
2023-01-15T07:14:06.802Z,0.50
2023-01-15T07:16:50.188Z,0.40
2023-01-15T07:19:33.077Z,0.38
2023-01-15T07:22:15.865Z,0.40
2023-01-15T07:24:58.685Z,0.57
2023-01-15T07:27:43.980Z,0.30
2023-01-15T07:30:26.782Z,0.30
2023-01-15T07:33:09.562Z,0.30
2023-01-15T07:35:52.408Z,0.40
2023-01-15T07:38:35.273Z,0.50
2023-01-15T07:41:35.935Z,2.45
2023-01-15T07:44:37.776Z,1.75
2023-01-15T07:47:40.123Z,0.80
2023-01-15T07:50:25.854Z,1.17
2023-01-15T07:53:08.687Z,0.77
2023-01-15T07:55:51.560Z,0.60
2023-01-15T07:58:34.396Z,0.65
2023-01-15T08:01:18.549Z,0.45
2023-01-15T08:04:01.428Z,0.68
2023-01-15T08:06:44.295Z,1.00
2023-01-15T08:09:27.365Z,0.70
2023-01-15T08:12:30.163Z,0.68
2023-01-15T08:15:16.638Z,0.45
2023-01-15T08:18:00.854Z,0.50
2023-01-15T08:20:46.140Z,0.60
2023-01-15T08:23:29.811Z,0.50
2023-01-15T08:26:12.886Z,0.60
2023-01-15T08:28:55.725Z,0.70
2023-01-15T08:31:40.496Z,0.50
2023-01-15T08:37:07.431Z,0.60
2023-01-15T08:39:50.929Z,0.50
2023-01-15T08:42:34.170Z,0.40
2023-01-15T08:45:17.131Z,0.40
2023-01-15T08:48:00.421Z,0.40
2023-01-15T08:50:44.640Z,0.40
2023-01-15T08:53:29.639Z,0.57
2023-01-15T08:56:14.464Z,0.47
2023-01-15T08:58:57.228Z,0.75
2023-01-15T09:01:41.051Z,0.65
2023-01-15T09:04:24.008Z,0.50
2023-01-15T09:07:08.247Z,0.52
2023-01-15T09:09:51.041Z,0.50
2023-01-15T09:12:33.819Z,0.50
2023-01-15T09:15:17.174Z,0.40
2023-01-15T09:18:00.528Z,0.30
2023-01-15T09:20:43.352Z,0.50
2023-01-15T09:23:27.484Z,0.35
2023-01-15T09:26:28.469Z,0.50
2023-01-15T09:29:11.635Z,0.35
2023-01-15T09:31:54.423Z,0.38
2023-01-15T09:34:37.219Z,0.70
2023-01-15T09:37:20.195Z,0.57
2023-01-15T09:40:06.401Z,0.80
2023-01-15T09:42:56.381Z,1.20
2023-01-15T09:45:45.552Z,0.85
2023-01-15T09:48:36.767Z,1.17
2023-01-15T09:51:29.336Z,1.15
2023-01-15T09:54:36.484Z,1.02
2023-01-15T09:57:23.707Z,0.80
2023-01-15T10:00:08.726Z,0.88
2023-01-15T10:03:05.392Z,0.70
2023-01-15T10:05:53.697Z,0.60
2023-01-15T10:08:40.052Z,0.70
2023-01-15T10:11:50.409Z,0.75
2023-01-15T10:14:44.837Z,1.10
2023-01-15T10:17:34.913Z,1.10
2023-01-15T10:20:25.613Z,0.70
2023-01-15T10:23:21.811Z,0.80
2023-01-15T10:26:17.108Z,1.13
2023-01-15T10:29:03.445Z,1.23
2023-01-15T10:31:53.434Z,1.23
2023-01-15T10:35:08.089Z,1.10
2023-01-15T10:37:55.462Z,1.48
2023-01-15T10:40:52.830Z,1.83
2023-01-15T10:43:48.945Z,1.15
2023-01-15T10:46:38.355Z,1.30
2023-01-15T10:49:22.699Z,1.48
2023-01-15T10:52:14.063Z,0.85
2023-01-15T10:55:09.267Z,0.60
2023-01-15T10:58:09.943Z,0.70
2023-01-15T11:00:57.900Z,0.80
2023-01-15T11:03:42.324Z,0.70
2023-01-15T11:06:26.602Z,0.65
2023-01-15T11:09:21.241Z,0.50
2023-01-15T11:12:38.711Z,0.73
2023-01-15T11:15:43.475Z,0.93
2023-01-15T11:18:47.321Z,2.55
2023-01-15T11:21:31.856Z,1.50
2023-01-15T11:24:17.319Z,1.30
2023-01-15T11:27:00.133Z,1.10
2023-01-15T11:29:45.595Z,0.90
2023-01-15T11:32:31.064Z,0.90
2023-01-15T11:35:17.719Z,0.73
2023-01-15T11:38:13.910Z,0.80
2023-01-15T11:40:59.517Z,1.00
2023-01-15T11:44:00.253Z,1.00
2023-01-15T11:47:15.447Z,0.75
2023-01-15T11:50:16.117Z,0.65
2023-01-15T11:53:00.387Z,0.50
2023-01-15T11:55:53.442Z,10.38
2023-01-15T11:58:45.405Z,2.90
2023-01-15T12:01:31.349Z,7.55
2023-01-15T12:04:28.174Z,10.88
2023-01-15T12:07:14.948Z,9.18
2023-01-15T12:10:17.569Z,13.70
2023-01-15T12:13:13.655Z,3.65
2023-01-15T12:16:06.167Z,2.25
2023-01-15T12:18:56.263Z,1.08
2023-01-15T12:22:14.748Z,1.45
2023-01-15T12:25:08.597Z,2.70
2023-01-15T12:28:00.440Z,1.60
2023-01-15T12:30:56.529Z,0.90
2023-01-15T12:33:46.476Z,1.10
2023-01-15T12:36:34.257Z,1.15
2023-01-15T12:39:23.018Z,0.60
2023-01-15T12:42:28.012Z,0.35
2023-01-15T12:45:16.102Z,0.20
2023-01-15T12:48:10.045Z,0.10
2023-01-15T12:50:55.757Z,0.20
2023-01-15T12:53:42.503Z,0.22
2023-01-15T12:56:30.399Z,0.30
2023-01-15T12:59:21.250Z,0.30
2023-01-15T13:02:15.409Z,0.20
2023-01-15T13:05:10.321Z,0.30
2023-01-15T13:07:58.090Z,0.22
2023-01-15T13:10:42.537Z,0.30
2023-01-15T13:13:27.022Z,0.20
2023-01-15T13:16:17.967Z,0.30
2023-01-15T13:19:14.687Z,0.20
2023-01-15T13:22:03.008Z,0.20
2023-01-15T13:25:19.272Z,0.20
2023-01-15T13:28:13.931Z,0.38
2023-01-15T13:31:08.357Z,0.30
2023-01-15T13:33:55.627Z,0.40
2023-01-15T13:36:43.589Z,0.22
2023-01-15T13:39:38.936Z,0.20
2023-01-15T13:42:37.743Z,0.30
2023-01-15T13:45:37.112Z,0.40
2023-01-15T13:48:25.094Z,0.30
2023-01-15T13:51:09.024Z,0.30
2023-01-15T13:53:52.028Z,0.30
2023-01-15T13:56:37.134Z,0.20
2023-01-15T13:59:39.907Z,1.83
2023-01-15T14:02:25.986Z,5.25
2023-01-15T14:05:27.987Z,1.92
2023-01-15T14:08:17.545Z,0.98
2023-01-15T14:11:01.490Z,0.40
2023-01-15T14:14:10.455Z,0.30
2023-01-15T14:17:01.174Z,0.30
2023-01-15T14:19:59.395Z,0.25
2023-01-15T14:22:57.300Z,0.20
2023-01-15T14:25:50.525Z,0.20
2023-01-15T14:28:49.862Z,0.20
2023-01-15T14:31:51.735Z,0.20
2023-01-15T14:34:37.067Z,0.40
2023-01-15T14:37:27.663Z,0.20
2023-01-15T14:40:20.516Z,0.30
2023-01-15T14:43:10.377Z,0.20
2023-01-15T14:45:53.352Z,0.20
2023-01-15T14:48:40.151Z,0.30
2023-01-15T14:51:28.168Z,0.10
2023-01-15T14:54:16.516Z,0.30
2023-01-15T14:57:01.471Z,0.28
2023-01-15T14:59:50.091Z,0.30
2023-01-15T15:02:37.424Z,0.20
2023-01-15T15:05:24.676Z,0.13
2023-01-15T15:08:07.553Z,0.20
2023-01-15T15:10:55.408Z,0.30
2023-01-15T15:13:45.599Z,0.20
2023-01-15T15:16:32.206Z,0.40
2023-01-15T15:19:25.890Z,0.80
2023-01-15T15:22:15.922Z,1.20
2023-01-15T15:25:02.701Z,1.20
2023-01-15T15:27:45.451Z,2.42
2023-01-15T15:30:30.948Z,2.97
2023-01-15T15:33:18.810Z,2.42
2023-01-15T15:36:02.235Z,1.70
2023-01-15T15:38:54.795Z,0.60
2023-01-15T15:41:55.146Z,0.82
2023-01-15T15:45:01.730Z,2.20
2023-01-15T15:48:02.464Z,1.05
2023-01-15T15:50:49.146Z,2.70
2023-01-15T15:53:32.625Z,1.83
2023-01-15T15:56:17.214Z,7.57
2023-01-15T16:01:43.337Z,3.90
2023-01-15T16:04:27.863Z,1.70
2023-01-15T16:10:00.452Z,3.50
2023-01-15T16:12:46.930Z,2.72
2023-01-15T16:15:32.889Z,2.20
2023-01-15T16:18:21.009Z,1.88
2023-01-15T16:21:04.378Z,2.75
2023-01-15T16:23:56.726Z,1.92
2023-01-15T16:26:43.876Z,3.17
2023-01-15T16:29:30.632Z,2.20
2023-01-15T16:32:15.428Z,1.65
2023-01-15T16:35:06.853Z,0.80
2023-01-15T16:37:51.963Z,0.40
2023-01-15T16:40:38.394Z,0.57
2023-01-15T16:43:23.677Z,0.30
2023-01-15T16:46:17.606Z,0.60
2023-01-15T16:49:24.078Z,0.40
2023-01-15T16:52:37.780Z,0.20
2023-01-15T16:55:43.741Z,0.32
2023-01-15T16:58:41.343Z,0.50
2023-01-15T17:01:36.255Z,0.40
2023-01-15T17:04:31.838Z,0.30
2023-01-15T17:07:20.630Z,0.70
2023-01-15T17:10:05.301Z,0.60
2023-01-15T17:12:48.514Z,2.20
2023-01-15T17:15:41.779Z,1.75
2023-01-15T17:18:30.810Z,1.10
2023-01-15T17:21:18.321Z,0.50
2023-01-15T17:24:01.217Z,0.50
2023-01-15T17:26:44.085Z,0.60
2023-01-15T17:29:26.860Z,0.60
2023-01-15T17:32:15.043Z,0.60
2023-01-15T17:34:59.259Z,1.30
2023-01-15T17:37:42.062Z,0.80
2023-01-15T17:40:25.134Z,0.40
2023-01-15T17:43:09.148Z,0.38
2023-01-15T17:45:51.913Z,0.50
2023-01-15T17:48:34.905Z,0.43
2023-01-15T17:51:19.048Z,0.32
2023-01-15T17:54:01.823Z,0.32
2023-01-15T17:57:02.146Z,0.40
2023-01-15T18:00:02.730Z,0.60
2023-01-15T18:03:12.392Z,2.40
2023-01-15T18:05:55.735Z,7.43
2023-01-15T18:08:41.870Z,3.58
2023-01-15T18:11:24.820Z,2.28
2023-01-15T18:14:07.727Z,10.40
2023-01-15T18:16:50.490Z,3.15
2023-01-15T18:19:33.393Z,5.10
2023-01-15T18:22:17.116Z,7.43
2023-01-15T18:25:01.340Z,6.68
2023-01-15T18:27:44.302Z,10.02
2023-01-15T18:30:27.145Z,4.90
2023-01-15T18:33:09.992Z,3.47
2023-01-15T18:36:02.924Z,2.45
2023-01-15T18:38:47.057Z,1.20
2023-01-15T18:41:48.912Z,1.70
2023-01-15T18:44:49.130Z,1.50
2023-01-15T18:47:31.845Z,1.40
2023-01-15T18:50:14.792Z,2.83
2023-01-15T18:52:58.006Z,1.80
2023-01-15T18:55:40.823Z,2.38
2023-01-15T18:58:24.995Z,0.90
2023-01-15T19:01:08.968Z,0.50
2023-01-15T19:03:51.832Z,0.40
2023-01-15T19:06:34.909Z,0.60
2023-01-15T19:09:18.294Z,0.50
2023-01-15T19:12:01.070Z,1.58
2023-01-15T19:15:02.790Z,1.20
2023-01-15T19:18:02.907Z,1.08
2023-01-15T19:20:45.813Z,0.63
2023-01-15T19:23:28.600Z,0.50
2023-01-15T19:26:11.391Z,0.63
2023-01-15T19:28:54.191Z,2.97
2023-01-15T19:31:39.281Z,2.22
2023-01-15T19:34:33.494Z,1.10
2023-01-15T19:37:16.562Z,1.20
2023-01-15T19:39:59.385Z,1.02
2023-01-15T19:42:59.867Z,0.90
2023-01-15T19:46:02.111Z,1.33
2023-01-15T19:49:03.659Z,0.82
2023-01-15T19:52:04.238Z,0.80
2023-01-15T19:55:00.000Z,1.20
2023-01-15T19:57:44.267Z,1.23
2023-01-15T20:00:28.248Z,1.17
2023-01-15T20:03:12.055Z,4.97
2023-01-15T20:05:56.476Z,5.10
2023-01-15T20:08:39.332Z,2.58
2023-01-15T20:11:22.140Z,1.50
2023-01-15T20:14:03.936Z,1.75
2023-01-15T20:16:46.733Z,1.00
2023-01-15T20:19:29.510Z,0.65
2023-01-15T20:22:13.639Z,0.70
2023-01-15T20:24:56.436Z,0.52
2023-01-15T20:27:40.490Z,0.50
2023-01-15T20:30:24.102Z,15.10
2023-01-15T20:33:07.178Z,6.20
2023-01-15T20:35:52.761Z,3.00
2023-01-15T20:38:36.889Z,1.45
2023-01-15T20:41:37.167Z,1.25
2023-01-15T20:44:45.856Z,1.13
2023-01-15T20:47:47.460Z,1.15
2023-01-15T20:50:33.537Z,1.10
2023-01-15T20:53:16.348Z,0.90
2023-01-15T20:56:00.556Z,1.00
2023-01-15T20:58:43.632Z,3.42
2023-01-15T21:01:26.783Z,5.65
2023-01-15T21:04:10.608Z,2.33
2023-01-15T21:06:53.484Z,1.38
2023-01-15T21:09:36.260Z,1.00
2023-01-15T21:12:20.537Z,1.10
2023-01-15T21:15:03.374Z,1.00
2023-01-15T21:17:46.281Z,0.70
2023-01-15T21:20:30.400Z,1.15
2023-01-15T21:23:13.207Z,1.42
2023-01-15T21:26:00.683Z,1.00
2023-01-15T21:28:45.285Z,1.00
2023-01-15T21:31:28.390Z,1.45
2023-01-15T21:34:11.493Z,1.50
2023-01-15T21:36:54.295Z,5.35
2023-01-15T21:39:38.639Z,3.80
2023-01-15T21:42:40.644Z,1.92
2023-01-15T21:45:24.808Z,3.20
2023-01-15T21:48:07.607Z,1.60
2023-01-15T21:50:50.384Z,2.10
2023-01-15T21:53:33.510Z,2.80
2023-01-15T21:56:16.400Z,3.60
2023-01-15T21:58:59.190Z,2.10
2023-01-15T22:01:43.513Z,1.38
2023-01-15T22:04:28.205Z,2.63
2023-01-15T22:09:53.854Z,1.30
2023-01-15T22:12:41.982Z,3.28
2023-01-15T22:15:24.812Z,2.40
2023-01-15T22:18:08.963Z,3.40
2023-01-15T22:20:57.787Z,1.60
2023-01-15T22:23:40.531Z,2.40
2023-01-15T22:26:25.728Z,1.90
2023-01-15T22:29:08.560Z,0.93
2023-01-15T22:31:51.825Z,2.58
2023-01-15T22:34:36.370Z,1.33
2023-01-15T22:40:01.734Z,1.10
2023-01-15T22:42:44.539Z,1.20
2023-01-15T22:45:27.311Z,1.40
2023-01-15T22:48:11.205Z,2.42
2023-01-15T22:50:55.312Z,2.63
2023-01-15T22:53:38.103Z,1.50
2023-01-15T22:56:21.009Z,3.40
2023-01-15T22:59:03.820Z,3.30
2023-01-15T23:01:46.920Z,3.53
2023-01-15T23:04:29.801Z,3.60
2023-01-15T23:07:14.061Z,4.13
2023-01-15T23:09:56.817Z,8.40
2023-01-15T23:12:40.382Z,10.23
2023-01-15T23:15:23.195Z,12.82
2023-01-15T23:18:06.726Z,6.75
2023-01-15T23:20:49.523Z,6.15
2023-01-15T23:23:33.852Z,4.40
2023-01-15T23:26:19.142Z,3.05
2023-01-15T23:29:02.635Z,1.70
2023-01-15T23:31:45.447Z,0.93
2023-01-15T23:34:28.613Z,1.15
2023-01-15T23:37:11.430Z,0.70
2023-01-15T23:39:55.541Z,0.50
2023-01-15T23:42:55.724Z,0.55
2023-01-15T23:45:56.025Z,0.40
2023-01-15T23:48:38.835Z,0.40
2023-01-15T23:51:21.616Z,0.43
2023-01-15T23:54:05.322Z,0.30
2023-01-15T23:56:49.883Z,0.30
2023-01-15T23:59:32.659Z,0.30
